Weather at Collingwood Airport

Public forecast

Using degrees Celsius for public forecast. Weather courtesy of forecast.io.

Closest aviation weather report (METAR) to Collingwood Airport

Closest report is CFB Borden, 15.0 nm (27.8 km) SE. Retrieved 2020/11/27 03:28 UTC (1 hour ago):

CYBN 270328Z AUTO 20004KT 9SM OVC024 05/03 A3001

Closest aviation forecast (TAF) to Collingwood Airport

Closest forecast is CFB Borden, 15.0 nm (27.8 km) SE. Retrieved 2020-11-27 00:33 UTC (4 hours ago):

TAF TAF CYBN 262330Z 2700/2712 26008KT P6SM SCT008 OVC025 TEMPO 2700/2712 3SM BR BKN008 OVC025 RMK FCST BASED ON AUTO OBS NXT FCST BY 270600Z